Time;durP1;ratioP1;P1;durP2;ratioP2;P2;SDS_P1;SDS_P2;PMS_P1;PMS_P2;Temp;Humidity;BMP_temperature;BMP_pressure;BME280_temperature;BME280_humidity;BME280_pressure;Samples;Min_cycle;Max_cycle;Signal;HPM_P1;HPM_P2
2022/04/03 00:01:04;;;;;;;10.97;9.00;;;0.70;99.90;;;;;;4961667;28;20192;-86
2022/04/03 00:03:30;;;;;;;10.83;8.93;;;0.70;99.90;;;;;;4978142;28;20215;-86
2022/04/03 00:05:56;;;;;;;10.43;8.73;;;0.70;99.90;;;;;;4962094;28;20195;-86
2022/04/03 00:08:22;;;;;;;11.67;8.80;;;0.70;99.90;;;;;;4978078;28;20231;-86
2022/04/03 00:10:48;;;;;;;11.13;8.40;;;0.70;99.90;;;;;;4978427;28;20184;-86
2022/04/03 00:13:14;;;;;;;11.70;9.10;;;0.70;99.90;;;;;;4973374;28;20205;-86
2022/04/03 00:15:42;;;;;;;11.50;9.07;;;0.70;99.90;;;;;;4977609;28;20185;-86
2022/04/03 00:18:09;;;;;;;11.17;9.00;;;0.80;99.90;;;;;;4978571;28;20192;-86
2022/04/03 00:20:38;;;;;;;10.97;8.87;;;0.80;99.90;;;;;;4994829;28;20174;-86
2022/04/03 00:23:06;;;;;;;10.70;8.53;;;0.80;99.90;;;;;;4961572;28;20222;-86
2022/04/03 00:25:32;;;;;;;11.27;8.00;;;0.90;99.90;;;;;;4994093;28;20271;-86
2022/04/03 00:27:58;;;;;;;10.67;8.07;;;0.90;99.90;;;;;;4993700;28;20182;-86
2022/04/03 00:30:25;;;;;;;9.77;7.90;;;0.90;99.90;;;;;;4961469;28;20277;-86
2022/04/03 00:32:51;;;;;;;12.90;8.70;;;0.90;99.90;;;;;;4978832;28;20206;-86
2022/04/03 00:35:17;;;;;;;10.43;8.83;;;0.90;99.90;;;;;;4967227;28;20195;-86
2022/04/03 00:37:45;;;;;;;11.17;8.73;;;0.90;99.90;;;;;;4969131;28;20184;-86
2022/04/03 00:40:11;;;;;;;10.67;8.63;;;0.90;99.90;;;;;;4976485;28;20193;-86
2022/04/03 00:42:37;;;;;;;10.33;7.87;;;0.80;99.90;;;;;;5003804;28;20303;-86
2022/04/03 00:45:05;;;;;;;10.33;9.07;;;0.80;99.90;;;;;;4983437;28;20183;-86
2022/04/03 00:47:31;;;;;;;8.60;7.60;;;0.80;99.90;;;;;;4980746;28;20175;-86
2022/04/03 00:49:57;;;;;;;11.93;9.10;;;0.70;99.90;;;;;;4980233;28;20192;-86
2022/04/03 00:52:40;;;;;;;13.13;8.83;;;0.80;99.90;;;;;;4980146;28;20208;-86
2022/04/03 00:55:06;;;;;;;10.53;8.70;;;0.70;99.90;;;;;;4988056;28;20178;-86
2022/04/03 00:57:33;;;;;;;9.60;7.77;;;0.80;99.90;;;;;;4960703;28;20184;-86
2022/04/03 01:00:01;;;;;;;9.83;8.53;;;0.80;99.90;;;;;;4960949;28;20227;-86
2022/04/03 01:02:27;;;;;;;10.20;8.20;;;0.70;99.90;;;;;;4960694;28;20218;-86
2022/04/03 01:04:53;;;;;;;12.03;9.30;;;0.80;99.90;;;;;;4961292;28;20184;-86
2022/04/03 01:07:27;;;;;;;10.83;8.27;;;0.80;99.90;;;;;;4960191;28;20183;-86
2022/04/03 01:09:53;;;;;;;12.20;8.73;;;0.80;99.90;;;;;;4960665;28;20219;-86
2022/04/03 01:12:19;;;;;;;10.10;8.70;;;0.80;99.90;;;;;;4960758;28;20231;-86
2022/04/03 01:14:45;;;;;;;12.13;9.03;;;0.90;99.90;;;;;;4960589;28;20266;-86
2022/04/03 01:17:13;;;;;;;11.30;9.07;;;0.90;99.90;;;;;;4960591;28;20196;-86
2022/04/03 01:19:40;;;;;;;12.17;9.73;;;1.00;99.90;;;;;;4960068;28;20172;-86
2022/04/03 01:22:08;;;;;;;11.43;9.17;;;1.00;99.90;;;;;;4975673;28;20222;-86
2022/04/03 01:24:34;;;;;;;12.50;9.03;;;1.00;99.90;;;;;;4959949;28;20236;-86
2022/04/03 01:27:00;;;;;;;13.27;9.17;;;1.00;99.90;;;;;;4958989;28;20181;-86
2022/04/03 01:29:27;;;;;;;12.37;8.93;;;1.10;99.90;;;;;;4960623;28;20188;-86
2022/04/03 01:31:53;;;;;;;11.20;8.90;;;1.10;99.90;;;;;;4976468;28;20272;-86
2022/04/03 01:34:20;;;;;;;10.50;8.83;;;1.20;99.90;;;;;;4979486;28;20188;-86
2022/04/03 01:36:47;;;;;;;10.60;8.33;;;1.10;99.90;;;;;;4996678;28;20192;-86
2022/04/03 01:39:14;;;;;;;10.23;7.80;;;1.10;99.90;;;;;;4979828;28;20180;-86
2022/04/03 01:41:41;;;;;;;11.00;8.33;;;1.00;99.90;;;;;;4979605;28;20183;-86
2022/04/03 01:44:09;;;;;;;10.73;8.63;;;0.90;99.90;;;;;;4979567;28;20207;-86
2022/04/03 01:46:39;;;;;;;11.20;9.07;;;0.90;99.90;;;;;;4979772;28;20187;-86
2022/04/03 01:49:07;;;;;;;10.53;8.77;;;0.80;99.90;;;;;;4979941;28;20242;-86
2022/04/03 01:51:33;;;;;;;10.80;8.60;;;0.80;99.90;;;;;;4981126;28;20178;-86
2022/04/03 01:54:00;;;;;;;11.63;8.60;;;0.80;99.90;;;;;;4980371;28;20192;-86
2022/04/03 01:56:27;;;;;;;13.03;9.50;;;0.80;99.90;;;;;;4978571;28;20172;-86
2022/04/03 01:58:53;;;;;;;11.93;9.53;;;0.80;99.90;;;;;;4978712;28;20189;-86
2022/04/03 02:01:19;;;;;;;11.50;9.20;;;0.90;99.90;;;;;;4978664;28;20184;-86
2022/04/03 02:03:46;;;;;;;11.10;8.63;;;0.80;99.90;;;;;;4978812;28;20215;-86
2022/04/03 02:06:15;;;;;;;12.97;9.17;;;0.90;99.90;;;;;;4978722;28;20234;-86
2022/04/03 02:08:51;;;;;;;11.00;8.80;;;0.80;99.90;;;;;;4978743;28;20184;-86
2022/04/03 02:11:17;;;;;;;12.67;9.17;;;0.80;99.90;;;;;;4979344;28;20167;-86
2022/04/03 02:13:43;;;;;;;14.60;9.73;;;0.80;99.90;;;;;;4995161;28;20215;-86
2022/04/03 02:16:11;;;;;;;11.73;8.87;;;0.80;99.90;;;;;;4979131;28;20187;-86
2022/04/03 02:18:38;;;;;;;12.70;9.30;;;0.90;99.90;;;;;;4980526;28;20191;-86
2022/04/03 02:21:13;;;;;;;11.77;8.47;;;0.80;99.90;;;;;;4982479;28;20179;-86
2022/04/03 02:23:40;;;;;;;12.90;9.20;;;0.80;99.90;;;;;;4982302;28;20294;-86
2022/04/03 02:26:06;;;;;;;12.73;8.67;;;0.80;99.90;;;;;;4982428;28;20247;-86
2022/04/03 02:28:32;;;;;;;9.47;8.33;;;0.80;99.90;;;;;;4976771;28;20707;-86
2022/04/03 02:30:59;;;;;;;13.00;9.23;;;0.80;99.90;;;;;;4962950;28;20242;-86
2022/04/03 02:33:24;;;;;;;11.77;9.10;;;0.80;99.90;;;;;;4962940;28;20231;-86
2022/04/03 02:35:50;;;;;;;11.70;9.03;;;0.80;99.90;;;;;;4963000;28;20263;-86
2022/04/03 02:38:17;;;;;;;12.37;9.13;;;0.80;99.90;;;;;;4963270;28;20181;-86
2022/04/03 02:40:49;;;;;;;13.43;9.03;;;0.80;99.90;;;;;;4962438;28;20597;-86
2022/04/03 02:43:15;;;;;;;13.87;9.83;;;0.90;99.90;;;;;;4962628;28;20211;-86
2022/04/03 02:45:41;;;;;;;11.10;8.33;;;0.90;99.90;;;;;;4978829;28;20179;-86
2022/04/03 02:48:08;;;;;;;15.13;9.17;;;0.90;99.90;;;;;;4979045;28;20199;-86
2022/04/03 02:50:34;;;;;;;12.10;8.70;;;0.90;99.90;;;;;;4962873;28;20202;-86
2022/04/03 02:53:00;;;;;;;14.20;9.50;;;0.90;99.90;;;;;;4978405;28;20299;-86
2022/04/03 02:55:26;;;;;;;12.30;9.47;;;0.80;99.90;;;;;;4962646;28;20176;-86
2022/04/03 02:57:53;;;;;;;13.63;9.30;;;0.70;99.90;;;;;;4962659;28;20194;-86
2022/04/03 03:00:19;;;;;;;13.27;9.80;;;0.70;99.90;;;;;;4981827;28;20180;-86
2022/04/03 03:02:48;;;;;;;12.47;9.43;;;0.70;99.90;;;;;;4981163;28;20269;-86
2022/04/03 03:05:14;;;;;;;13.50;9.60;;;0.70;99.90;;;;;;4981707;28;20270;-86
2022/04/03 03:07:42;;;;;;;13.03;9.37;;;0.60;99.90;;;;;;4981462;28;20176;-86
2022/04/03 03:10:13;;;;;;;12.73;10.00;;;0.60;99.90;;;;;;4981064;28;20191;-86
2022/04/03 03:12:39;;;;;;;15.70;10.03;;;0.60;99.90;;;;;;4979933;28;20242;-86
2022/04/03 03:15:39;;;;;;;12.07;9.20;;;0.70;99.90;;;;;;4996750;28;20191;-86
2022/04/03 03:18:05;;;;;;;12.63;9.50;;;0.70;99.90;;;;;;4998544;28;20187;-86
2022/04/03 03:20:31;;;;;;;12.83;9.77;;;0.70;99.90;;;;;;4976110;28;20195;-86
2022/04/03 03:22:57;;;;;;;12.93;9.70;;;0.70;99.90;;;;;;4995430;28;20213;-86
2022/04/03 03:25:23;;;;;;;11.57;9.30;;;0.70;99.90;;;;;;4962031;28;20251;-86
2022/04/03 03:27:49;;;;;;;13.83;9.83;;;0.80;99.90;;;;;;4961921;28;20180;-86
2022/04/03 03:30:15;;;;;;;12.70;10.30;;;0.90;99.90;;;;;;4977331;28;20173;-86
2022/04/03 03:32:41;;;;;;;13.60;9.30;;;0.90;99.90;;;;;;4961690;28;20211;-86
2022/04/03 03:35:08;;;;;;;14.53;10.50;;;0.90;99.90;;;;;;4961737;28;20185;-86
2022/04/03 03:37:34;;;;;;;13.47;9.63;;;1.00;99.90;;;;;;4961821;28;20186;-86
2022/04/03 03:40:06;;;;;;;15.00;10.57;;;1.00;99.90;;;;;;4961275;28;20196;-86
2022/04/03 03:42:33;;;;;;;14.57;10.80;;;1.00;99.90;;;;;;4977670;28;20212;-86
2022/04/03 03:44:59;;;;;;;14.33;10.23;;;1.00;99.90;;;;;;4961611;28;20283;-86
2022/04/03 03:47:27;;;;;;;14.80;10.00;;;1.10;99.90;;;;;;4962020;28;20178;-86
2022/04/03 03:49:54;;;;;;;14.53;10.00;;;1.10;99.90;;;;;;4961716;28;20206;-86
2022/04/03 03:52:20;;;;;;;13.87;10.30;;;1.10;99.90;;;;;;4961337;28;20213;-86
2022/04/03 03:54:46;;;;;;;11.93;9.57;;;1.10;99.90;;;;;;4961554;28;20186;-86
2022/04/03 03:57:12;;;;;;;15.63;10.77;;;1.10;99.90;;;;;;4961388;28;20275;-86
2022/04/03 03:59:39;;;;;;;15.53;11.17;;;1.10;99.90;;;;;;4975762;28;20189;-86
2022/04/03 04:02:13;;;;;;;12.87;9.73;;;1.10;99.90;;;;;;4979892;28;20212;-86
2022/04/03 04:04:39;;;;;;;13.00;10.00;;;1.10;99.90;;;;;;4980711;28;20185;-86
2022/04/03 04:07:05;;;;;;;15.07;11.10;;;1.10;99.90;;;;;;4980466;28;20242;-86
2022/04/03 04:09:31;;;;;;;12.80;9.20;;;1.10;99.90;;;;;;4980750;28;20240;-86
2022/04/03 04:11:58;;;;;;;13.27;10.70;;;1.10;99.90;;;;;;4964559;28;20205;-86
2022/04/03 04:14:24;;;;;;;13.93;10.23;;;1.20;99.90;;;;;;4961222;28;20184;-86
2022/04/03 04:16:49;;;;;;;12.40;9.37;;;1.20;99.90;;;;;;4963176;28;20209;-86
2022/04/03 04:19:15;;;;;;;12.73;10.17;;;1.20;99.90;;;;;;4980225;28;20235;-86
2022/04/03 04:21:42;;;;;;;13.30;10.10;;;1.10;99.90;;;;;;4996032;28;20184;-86
2022/04/03 04:24:08;;;;;;;13.73;10.17;;;1.10;99.90;;;;;;4996702;28;20208;-86
2022/04/03 04:26:34;;;;;;;12.67;10.13;;;1.10;99.90;;;;;;4996634;28;20192;-86
2022/04/03 04:29:00;;;;;;;14.23;10.00;;;1.10;99.90;;;;;;4971422;28;20214;-86
2022/04/03 04:31:25;;;;;;;13.07;9.63;;;1.10;99.90;;;;;;4960836;28;20600;-86
2022/04/03 04:33:51;;;;;;;12.10;9.70;;;1.10;99.90;;;;;;4976733;28;20212;-86
2022/04/03 04:36:17;;;;;;;13.30;10.23;;;1.10;99.90;;;;;;4961245;28;20189;-86
2022/04/03 04:38:59;;;;;;;14.77;10.63;;;1.10;99.90;;;;;;4960736;28;20214;-86
2022/04/03 04:41:25;;;;;;;13.17;9.63;;;1.10;99.90;;;;;;4959944;28;20177;-86
2022/04/03 04:43:51;;;;;;;13.17;10.23;;;1.10;99.90;;;;;;4960427;28;20277;-86
2022/04/03 04:46:17;;;;;;;14.30;10.97;;;1.10;99.90;;;;;;4960603;28;20177;-86
2022/04/03 04:48:43;;;;;;;12.90;9.77;;;1.10;99.90;;;;;;4960416;28;20255;-86
2022/04/03 04:51:09;;;;;;;14.77;11.07;;;1.10;99.90;;;;;;4960327;28;20265;-86
2022/04/03 04:53:35;;;;;;;13.17;10.67;;;0.90;99.90;;;;;;4960127;28;20234;-86
2022/04/03 04:56:01;;;;;;;15.10;10.40;;;0.90;99.90;;;;;;4960570;28;20184;-86
2022/04/03 04:58:32;;;;;;;14.33;10.93;;;0.80;99.90;;;;;;4959954;28;20193;-86
2022/04/03 05:00:58;;;;;;;14.27;11.43;;;0.80;99.90;;;;;;4960164;28;20675;-86
2022/04/03 05:03:24;;;;;;;15.77;11.83;;;0.70;99.90;;;;;;4960001;28;20212;-86
2022/04/03 05:05:50;;;;;;;17.03;11.57;;;0.60;99.90;;;;;;4960227;28;20176;-86
2022/04/03 05:08:16;;;;;;;14.63;11.17;;;0.70;99.90;;;;;;4976865;28;20184;-86
2022/04/03 05:10:43;;;;;;;17.60;11.50;;;0.70;99.90;;;;;;4960080;28;20176;-86
2022/04/03 05:13:09;;;;;;;15.57;12.30;;;0.70;99.90;;;;;;4973148;28;20213;-86
2022/04/03 05:15:35;;;;;;;14.83;11.70;;;0.70;99.90;;;;;;4979662;28;20187;-86
2022/04/03 05:18:01;;;;;;;16.23;12.80;;;0.70;99.90;;;;;;4980037;28;20258;-86
2022/04/03 05:20:28;;;;;;;16.83;12.37;;;0.70;99.90;;;;;;4979555;28;20190;-86
2022/04/03 05:22:54;;;;;;;14.90;11.23;;;0.70;99.90;;;;;;4979059;28;20222;-86
2022/04/03 05:25:20;;;;;;;19.13;12.17;;;0.70;99.90;;;;;;4979537;28;20236;-86
2022/04/03 05:27:46;;;;;;;14.93;11.13;;;0.60;99.90;;;;;;4960923;28;20180;-86
2022/04/03 05:30:13;;;;;;;16.73;12.33;;;0.60;99.90;;;;;;4979313;28;20732;-86
2022/04/03 05:32:40;;;;;;;17.43;12.27;;;0.60;99.90;;;;;;4979616;28;20299;-86
2022/04/03 05:35:08;;;;;;;18.70;12.27;;;0.50;99.90;;;;;;4979562;28;20193;-86
2022/04/03 05:37:34;;;;;;;16.17;12.13;;;0.60;99.90;;;;;;4995530;28;20179;-86
2022/04/03 05:40:00;;;;;;;18.30;12.00;;;0.50;99.90;;;;;;4979056;28;20194;-86
2022/04/03 05:42:26;;;;;;;16.43;11.63;;;0.50;99.90;;;;;;4979069;28;20211;-86
2022/04/03 05:44:52;;;;;;;19.47;12.27;;;0.50;99.90;;;;;;4979264;28;20178;-86
2022/04/03 05:47:19;;;;;;;15.90;12.20;;;0.50;99.90;;;;;;4979234;28;20179;-86
2022/04/03 05:49:46;;;;;;;14.93;11.43;;;0.60;99.90;;;;;;4979064;28;20218;-86
2022/04/03 05:52:11;;;;;;;15.00;11.83;;;0.60;99.90;;;;;;4979025;28;20196;-86
2022/04/03 05:54:38;;;;;;;15.57;11.83;;;0.60;99.90;;;;;;4982087;28;20191;-86
2022/04/03 05:57:04;;;;;;;18.90;13.03;;;0.60;99.90;;;;;;4983240;28;20180;-86
2022/04/03 05:59:31;;;;;;;16.50;11.83;;;0.60;99.90;;;;;;4982506;28;20175;-86
2022/04/03 06:01:57;;;;;;;17.10;11.97;;;0.60;99.90;;;;;;4982599;28;20223;-86
2022/04/03 06:04:23;;;;;;;16.83;11.87;;;0.70;99.90;;;;;;4983084;28;20172;-86
2022/04/03 06:06:49;;;;;;;16.80;11.90;;;0.70;99.90;;;;;;4983035;28;20262;-86
2022/04/03 06:09:15;;;;;;;16.37;11.70;;;0.70;99.90;;;;;;4982636;28;20272;-86
2022/04/03 06:11:41;;;;;;;20.23;12.37;;;0.70;99.90;;;;;;4982536;28;20175;-86
2022/04/03 06:14:06;;;;;;;15.37;11.37;;;0.70;99.90;;;;;;4979716;28;20271;-86
2022/04/03 06:16:32;;;;;;;15.50;11.87;;;0.70;99.90;;;;;;4979316;28;20192;-86
2022/04/03 06:18:58;;;;;;;16.40;11.90;;;0.80;99.90;;;;;;4979340;28;20272;-86
2022/04/03 06:21:24;;;;;;;17.10;11.57;;;0.80;99.90;;;;;;4979590;28;20563;-86
2022/04/03 06:23:50;;;;;;;15.50;11.47;;;0.80;99.90;;;;;;4978931;28;20216;-86
2022/04/03 06:26:16;;;;;;;19.70;11.80;;;0.90;99.90;;;;;;4979503;28;20187;-87
2022/04/03 06:28:42;;;;;;;14.37;11.60;;;0.90;99.90;;;;;;4979294;28;20181;-86
2022/04/03 06:31:08;;;;;;;17.53;11.77;;;0.90;99.90;;;;;;4979157;28;20285;-86
2022/04/03 06:33:51;;;;;;;15.70;10.97;;;0.90;99.90;;;;;;4978794;28;20693;-86
2022/04/03 06:36:17;;;;;;;14.97;10.27;;;0.90;99.90;;;;;;4979072;28;20166;-86
2022/04/03 06:38:43;;;;;;;14.37;10.83;;;1.00;99.90;;;;;;4979042;28;20661;-86
2022/04/03 06:41:09;;;;;;;13.50;10.10;;;1.00;99.90;;;;;;4977812;28;20192;-86
2022/04/03 06:43:35;;;;;;;15.37;11.63;;;1.00;99.90;;;;;;4978482;28;20214;-86
2022/04/03 06:46:01;;;;;;;15.67;11.27;;;1.10;99.90;;;;;;4978836;28;20181;-86
2022/04/03 06:48:29;;;;;;;15.60;11.40;;;1.10;99.90;;;;;;4978704;28;20185;-86
2022/04/03 06:50:55;;;;;;;13.07;10.23;;;1.10;99.90;;;;;;4978479;28;20177;-86
2022/04/03 06:53:21;;;;;;;13.43;10.47;;;1.10;99.90;;;;;;4978148;28;20280;-86
2022/04/03 06:55:47;;;;;;;16.43;11.40;;;1.10;99.90;;;;;;4962640;28;20178;-89
2022/04/03 06:58:12;;;;;;;16.47;10.97;;;1.20;99.90;;;;;;4979718;28;20240;-86
2022/04/03 07:00:46;;;;;;;14.07;10.40;;;1.20;99.90;;;;;;4978320;28;20174;-86
2022/04/03 07:03:12;;;;;;;14.43;11.00;;;1.30;99.90;;;;;;4971317;28;20208;-86
2022/04/03 07:05:38;;;;;;;13.60;10.37;;;1.40;99.90;;;;;;4981023;28;20272;-86
2022/04/03 07:08:06;;;;;;;12.47;9.47;;;1.30;99.90;;;;;;4979936;28;20208;-86
2022/04/03 07:10:33;;;;;;;11.93;9.40;;;1.30;99.90;;;;;;4979655;28;20177;-86
2022/04/03 07:12:59;;;;;;;13.17;10.30;;;1.40;99.90;;;;;;4997788;28;20262;-86
2022/04/03 07:15:25;;;;;;;14.30;9.97;;;1.40;99.90;;;;;;4981710;28;20176;-86
2022/04/03 07:17:51;;;;;;;12.70;10.10;;;1.50;99.90;;;;;;4981393;28;20210;-86
2022/04/03 07:20:17;;;;;;;14.10;10.40;;;1.50;99.90;;;;;;4981174;28;20184;-86
2022/04/03 07:22:44;;;;;;;13.63;9.90;;;1.60;99.90;;;;;;4981353;28;20229;-86
2022/04/03 07:25:11;;;;;;;12.77;10.13;;;1.60;99.90;;;;;;4977981;28;20185;-86
2022/04/03 07:27:38;;;;;;;13.50;9.90;;;1.60;99.90;;;;;;4961712;28;20187;-87
2022/04/03 07:30:09;;;;;;;16.03;10.23;;;1.70;99.90;;;;;;4979553;28;20224;-87
2022/04/03 07:32:36;;;;;;;13.67;9.93;;;1.80;99.90;;;;;;4981389;28;20564;-87
2022/04/03 07:35:03;;;;;;;13.40;9.80;;;1.80;99.90;;;;;;4981335;28;20240;-87
2022/04/03 07:37:30;;;;;;;11.97;9.87;;;1.90;99.90;;;;;;4981108;28;20194;-87
2022/04/03 07:39:56;;;;;;;11.53;9.60;;;2.00;99.90;;;;;;4981226;28;20181;-87
2022/04/03 07:42:22;;;;;;;12.30;9.27;;;2.10;99.90;;;;;;4977756;28;20214;-87
2022/04/03 07:44:48;;;;;;;11.67;9.97;;;2.20;99.90;;;;;;4978009;28;20182;-87
2022/04/03 07:47:14;;;;;;;13.43;9.47;;;2.20;99.90;;;;;;4978121;28;20189;-88
2022/04/03 07:49:40;;;;;;;10.93;8.57;;;2.20;99.90;;;;;;4961732;28;20188;-87
2022/04/03 07:52:06;;;;;;;9.53;8.47;;;2.10;99.90;;;;;;4977845;28;20580;-88
2022/04/03 07:54:32;;;;;;;11.33;8.83;;;2.00;99.90;;;;;;4977543;28;20194;-87
2022/04/03 07:56:58;;;;;;;11.37;9.27;;;2.00;99.90;;;;;;4977598;28;20277;-87
2022/04/03 07:59:24;;;;;;;12.00;9.03;;;2.10;99.90;;;;;;4986497;28;20260;-88
2022/04/03 08:01:50;;;;;;;12.97;9.10;;;2.10;99.90;;;;;;4977288;28;20285;-88
2022/04/03 08:04:16;;;;;;;11.87;9.17;;;2.10;99.90;;;;;;4977497;28;20189;-88
2022/04/03 08:06:43;;;;;;;12.10;9.27;;;2.20;99.90;;;;;;4975575;28;20187;-88
2022/04/03 08:09:09;;;;;;;11.27;8.97;;;2.30;99.90;;;;;;4975137;28;20196;-88
2022/04/03 08:11:36;;;;;;;9.87;8.40;;;2.30;99.90;;;;;;4974889;28;20183;-89
2022/04/03 08:14:02;;;;;;;9.93;8.17;;;2.30;99.90;;;;;;4975080;28;20188;-88
2022/04/03 08:16:28;;;;;;;8.73;7.83;;;2.40;99.90;;;;;;4985388;28;20202;-89
2022/04/03 08:18:54;;;;;;;12.27;8.80;;;2.50;99.90;;;;;;4977863;28;20179;-88
2022/04/03 08:21:20;;;;;;;10.70;8.83;;;2.70;99.90;;;;;;4978193;28;20646;-88
2022/04/03 08:23:46;;;;;;;10.67;8.40;;;2.80;99.90;;;;;;4977567;28;20231;-88
2022/04/03 08:26:12;;;;;;;9.93;7.70;;;2.90;99.90;;;;;;4977642;28;20221;-88
2022/04/03 08:28:38;;;;;;;9.53;8.33;;;3.00;99.90;;;;;;4974181;28;20612;-88
2022/04/03 08:31:04;;;;;;;9.63;7.63;;;3.00;99.90;;;;;;4958620;28;20199;-88
2022/04/03 08:33:31;;;;;;;9.63;7.93;;;3.00;99.90;;;;;;4976449;28;20210;-88
2022/04/03 08:35:57;;;;;;;9.97;7.93;;;3.10;99.90;;;;;;4982446;28;20190;-90
2022/04/03 08:38:23;;;;;;;11.60;7.93;;;3.30;99.90;;;;;;4996296;28;20159;-88
2022/04/03 08:41:00;;;;;;;10.33;8.03;;;3.40;99.90;;;;;;4968859;28;20214;-88
2022/04/03 08:43:28;;;;;;;10.17;8.30;;;3.50;99.90;;;;;;4961707;28;20211;-88
2022/04/03 08:46:26;;;;;;;14.83;7.67;;;3.50;99.90;;;;;;4960887;28;20180;-88
2022/04/03 08:48:55;;;;;;;8.33;7.53;;;3.30;99.90;;;;;;4961144;28;20263;-83
2022/04/03 08:51:23;;;;;;;10.37;8.20;;;3.20;99.90;;;;;;4974957;28;20176;-85
2022/04/03 08:53:49;;;;;;;11.00;8.90;;;3.20;99.90;;;;;;4977525;28;20219;-88
2022/04/03 08:56:15;;;;;;;10.17;8.60;;;3.00;99.90;;;;;;4982496;28;20186;-88
2022/04/03 08:58:41;;;;;;;9.27;7.93;;;2.80;99.90;;;;;;4974031;28;20241;-88
2022/04/03 09:01:07;;;;;;;9.60;7.77;;;2.80;99.90;;;;;;4976024;28;20184;-88
2022/04/03 09:03:33;;;;;;;9.23;7.40;;;2.70;99.90;;;;;;4977092;28;20218;-87
2022/04/03 09:06:17;;;;;;;9.83;7.57;;;2.60;99.90;;;;;;4993067;28;20183;-88
2022/04/03 09:08:43;;;;;;;10.60;7.47;;;2.70;99.90;;;;;;4976735;28;20183;-88
2022/04/03 09:11:10;;;;;;;9.80;7.33;;;2.80;99.90;;;;;;4976397;28;20202;-88
2022/04/03 09:13:38;;;;;;;8.80;7.80;;;2.90;99.90;;;;;;4993278;28;20688;-88
2022/04/03 09:16:05;;;;;;;10.90;9.00;;;3.30;99.90;;;;;;4977048;28;20191;-88
2022/04/03 09:18:51;;;;;;;10.97;8.20;;;3.60;99.90;;;;;;4977221;28;20198;-88
2022/04/03 09:21:26;;;;;;;10.50;7.73;;;4.10;99.90;;;;;;4975713;28;20183;-88
2022/04/03 09:24:06;;;;;;;9.70;7.33;;;4.40;99.90;;;;;;4958014;28;20234;-88
2022/04/03 09:26:34;;;;;;;8.70;6.90;;;4.70;99.90;;;;;;4957662;28;20186;-88
2022/04/03 09:29:11;;;;;;;8.80;6.73;;;5.00;99.90;;;;;;4960143;28;20187;-88
2022/04/03 09:31:38;;;;;;;7.50;6.70;;;5.00;99.90;;;;;;4978225;28;20267;-88
2022/04/03 09:34:07;;;;;;;7.07;6.03;;;5.00;99.90;;;;;;4961979;28;20247;-88
2022/04/03 09:36:35;;;;;;;8.53;6.27;;;4.90;99.90;;;;;;4961863;28;20242;-87
2022/04/03 09:39:06;;;;;;;10.70;6.83;;;4.80;99.90;;;;;;4962887;28;20183;-88
2022/04/03 09:41:54;;;;;;;8.67;7.53;;;4.60;99.90;;;;;;4961495;28;20187;-88
2022/04/03 09:44:39;;;;;;;7.17;6.47;;;4.50;99.90;;;;;;4960955;28;20191;-88
2022/04/03 09:47:14;;;;;;;8.00;5.87;;;4.50;99.90;;;;;;4963536;28;20206;-83
2022/04/03 09:49:41;;;;;;;7.03;5.73;;;4.40;99.90;;;;;;4978733;28;20179;-84
2022/04/03 09:52:09;;;;;;;7.83;6.40;;;4.40;99.90;;;;;;4962229;28;20208;-88
2022/04/03 09:54:38;;;;;;;8.33;6.37;;;4.40;99.90;;;;;;4963517;28;20230;-88
2022/04/03 09:57:21;;;;;;;7.83;7.03;;;4.40;99.90;;;;;;4979864;28;20184;-87
2022/04/03 09:59:54;;;;;;;6.90;6.17;;;4.40;99.90;;;;;;4963732;28;20364;-87
2022/04/03 10:02:24;;;;;;;7.20;6.33;;;4.30;99.90;;;;;;4963810;28;20239;-87
2022/04/03 10:04:52;;;;;;;7.70;6.37;;;4.30;99.90;;;;;;4979664;28;20176;-87
2022/04/03 10:07:20;;;;;;;8.67;5.73;;;4.20;99.90;;;;;;4979571;28;20187;-87
2022/04/03 10:09:50;;;;;;;6.27;5.53;;;4.00;99.90;;;;;;4979461;28;20231;-87
2022/04/03 10:12:21;;;;;;;7.13;6.00;;;3.90;99.90;;;;;;4979352;28;20211;-87
2022/04/03 10:14:50;;;;;;;7.27;5.50;;;3.80;99.90;;;;;;4977182;28;20191;-87
2022/04/03 10:17:17;;;;;;;7.87;5.33;;;3.70;99.90;;;;;;4979332;28;20192;-87
2022/04/03 10:19:44;;;;;;;6.23;5.63;;;3.50;99.90;;;;;;4979066;28;20180;-87
2022/04/03 10:22:17;;;;;;;7.00;6.17;;;3.60;99.90;;;;;;4979441;28;20211;-87
2022/04/03 10:24:48;;;;;;;7.23;6.53;;;3.70;99.90;;;;;;4979295;28;20226;-87
2022/04/03 10:27:23;;;;;;;8.23;6.00;;;3.90;99.90;;;;;;4979498;28;20199;-87
2022/04/03 10:29:50;;;;;;;8.30;6.40;;;4.20;99.90;;;;;;4962016;28;20187;-87
2022/04/03 10:32:37;;;;;;;10.03;7.13;;;4.20;99.90;;;;;;4978727;28;20204;-88
2022/04/03 10:35:04;;;;;;;9.07;6.00;;;4.10;99.90;;;;;;4962958;28;20190;-87
2022/04/03 10:37:30;;;;;;;6.03;5.10;;;4.10;99.90;;;;;;4979270;28;20188;-88
2022/04/03 10:40:15;;;;;;;7.30;5.77;;;4.10;99.90;;;;;;4979218;28;20191;-87
2022/04/03 10:42:49;;;;;;;7.53;5.73;;;4.10;99.90;;;;;;4979093;28;20216;-87
2022/04/03 10:45:17;;;;;;;6.60;5.90;;;4.00;99.90;;;;;;4979191;28;20180;-87
2022/04/03 10:47:43;;;;;;;7.07;6.33;;;3.90;99.90;;;;;;4979017;28;20180;-87
2022/04/03 10:50:21;;;;;;;9.13;7.10;;;3.90;99.90;;;;;;4980547;28;20184;-87
2022/04/03 10:52:54;;;;;;;14.30;9.43;;;3.70;99.90;;;;;;4979004;28;20199;-87
2022/04/03 10:55:36;;;;;;;8.80;7.30;;;3.60;99.90;;;;;;4978811;28;20188;-87
2022/04/03 10:58:04;;;;;;;7.67;6.80;;;3.50;99.90;;;;;;4978713;28;20214;-87
2022/04/03 11:00:31;;;;;;;8.20;6.50;;;3.50;99.90;;;;;;4978150;28;20184;-87
2022/04/03 11:02:57;;;;;;;8.97;7.00;;;3.50;99.90;;;;;;4976491;28;20208;-87
2022/04/03 11:05:25;;;;;;;8.97;7.00;;;3.50;99.90;;;;;;4976391;28;20523;-87
2022/04/03 11:07:55;;;;;;;9.50;7.20;;;3.50;99.90;;;;;;4976060;28;20184;-87
2022/04/03 11:10:55;;;;;;;10.37;7.10;;;3.50;99.90;;;;;;4976277;28;20168;-87
2022/04/03 11:13:31;;;;;;;8.97;6.33;;;3.60;99.90;;;;;;4976247;28;20212;-87
2022/04/03 11:16:04;;;;;;;5.97;5.33;;;3.60;99.90;;;;;;4975870;28;20217;-87
2022/04/03 11:18:33;;;;;;;5.63;4.70;;;3.70;99.90;;;;;;4976334;28;20196;-91
2022/04/03 11:21:25;;;;;;;5.60;4.37;;;3.70;99.90;;;;;;4961276;28;20637;-81
2022/04/03 11:24:12;;;;;;;5.77;4.47;;;3.70;99.90;;;;;;4978181;28;20204;-88
2022/04/03 11:26:41;;;;;;;6.17;4.47;;;3.80;99.90;;;;;;4978881;28;20168;-88
2022/04/03 11:29:12;;;;;;;4.60;4.07;;;3.80;99.90;;;;;;4989350;28;20183;-87
2022/04/03 11:31:45;;;;;;;7.30;4.10;;;3.80;99.90;;;;;;4981349;28;20186;-86
2022/04/03 11:34:12;;;;;;;5.23;4.40;;;3.90;99.90;;;;;;4974245;28;20188;-87
2022/04/03 11:36:38;;;;;;;5.67;4.20;;;4.00;99.90;;;;;;4959282;28;20234;-87
2022/04/03 11:39:09;;;;;;;7.03;4.57;;;4.10;99.90;;;;;;4975201;28;20188;-87
2022/04/03 11:41:37;;;;;;;5.20;4.00;;;4.20;99.90;;;;;;4960651;28;20176;-87
2022/04/03 11:44:10;;;;;;;5.90;4.10;;;4.20;99.90;;;;;;4975428;28;20261;-87
2022/04/03 11:46:38;;;;;;;4.67;3.80;;;4.30;99.90;;;;;;4976106;28;20177;-87
2022/04/03 11:49:17;;;;;;;4.90;3.77;;;4.40;99.90;;;;;;4975512;28;20251;-87
2022/04/03 11:51:45;;;;;;;6.10;3.70;;;4.20;99.90;;;;;;4959063;28;20183;-87
2022/04/03 11:54:14;;;;;;;5.90;4.20;;;3.70;99.90;;;;;;4959628;28;20188;-87
2022/04/03 11:56:40;;;;;;;3.97;3.57;;;3.20;99.90;;;;;;4975962;28;20208;-87
2022/04/03 11:59:08;;;;;;;4.77;4.10;;;3.30;99.90;;;;;;4959234;28;20251;-87
2022/04/03 12:01:51;;;;;;;4.30;3.40;;;3.30;99.90;;;;;;4975298;28;20180;-87
2022/04/03 12:04:21;;;;;;;7.63;3.73;;;3.30;99.90;;;;;;4976891;28;20326;-86
2022/04/03 12:06:50;;;;;;;5.17;3.80;;;3.20;99.90;;;;;;4977179;28;20757;-87
2022/04/03 12:09:24;;;;;;;4.43;3.97;;;3.00;99.90;;;;;;4977033;28;20179;-87
2022/04/03 12:11:53;;;;;;;5.20;3.83;;;3.20;99.90;;;;;;4961099;28;20181;-87
2022/04/03 12:14:31;;;;;;;4.80;3.37;;;3.40;99.90;;;;;;4977487;28;20179;-87
2022/04/03 12:17:02;;;;;;;5.80;3.77;;;3.50;99.90;;;;;;4977249;28;20640;-87
2022/04/03 12:19:30;;;;;;;3.93;3.43;;;3.60;99.90;;;;;;4977171;28;20179;-87
2022/04/03 12:22:00;;;;;;;3.67;3.23;;;3.70;99.90;;;;;;4976779;28;20210;-86
2022/04/03 12:24:31;;;;;;;6.07;3.50;;;3.60;99.90;;;;;;4961039;28;20278;-87
2022/04/03 12:27:15;;;;;;;4.20;3.67;;;3.60;99.90;;;;;;4977070;28;20180;-87
2022/04/03 12:29:46;;;;;;;4.17;3.40;;;3.60;99.90;;;;;;4960627;28;20183;-87
2022/04/03 12:32:19;;;;;;;3.73;3.13;;;3.70;99.90;;;;;;4960778;28;20200;-87
2022/04/03 12:34:47;;;;;;;4.27;3.23;;;3.60;99.90;;;;;;4960693;28;20209;-87
2022/04/03 12:37:17;;;;;;;5.10;3.80;;;3.40;99.90;;;;;;4960266;28;20176;-86
2022/04/03 12:39:46;;;;;;;4.67;3.07;;;3.50;99.90;;;;;;4960529;28;20238;-87
2022/04/03 12:42:15;;;;;;;5.17;3.77;;;3.60;99.90;;;;;;4960482;28;20302;-87
2022/04/03 12:45:12;;;;;;;7.20;3.20;;;3.70;99.90;;;;;;4976734;28;20176;-87
2022/04/03 12:47:39;;;;;;;4.47;3.57;;;3.70;99.90;;;;;;4960585;28;20351;-86
2022/04/03 12:50:08;;;;;;;4.70;2.90;;;3.60;99.90;;;;;;4960500;28;20190;-87
2022/04/03 12:52:47;;;;;;;5.20;3.80;;;3.50;99.90;;;;;;4960341;28;20203;-87
2022/04/03 12:55:23;;;;;;;9.87;7.23;;;3.60;99.90;;;;;;4960398;28;20526;-87